createdAt,value
2022-11-23T00:01:14.046Z,71.53
2022-11-23T00:03:41.960Z,71.93
2022-11-23T00:06:10.053Z,70.37
2022-11-23T00:08:39.390Z,70.20
2022-11-23T00:11:07.863Z,69.53
2022-11-23T00:13:36.358Z,71.27
2022-11-23T00:16:06.968Z,68.67
2022-11-23T00:18:34.913Z,71.23
2022-11-23T00:21:07.308Z,71.77
2022-11-23T00:23:35.307Z,70.07
2022-11-23T00:26:04.979Z,71.90
2022-11-23T00:28:33.010Z,69.53
2022-11-23T00:31:01.067Z,70.70
2022-11-23T00:33:29.006Z,70.53
2022-11-23T00:36:01.344Z,70.27
2022-11-23T00:38:32.491Z,70.00
2022-11-23T00:41:02.252Z,69.43
2022-11-23T00:43:32.274Z,69.77
2022-11-23T00:46:08.030Z,70.47
2022-11-23T00:48:36.659Z,69.50
2022-11-23T00:51:06.323Z,70.47
2022-11-23T00:53:34.320Z,70.10
2022-11-23T00:56:02.527Z,68.93
2022-11-23T00:58:31.982Z,70.40
2022-11-23T01:01:07.711Z,72.07
2022-11-23T01:03:37.912Z,71.20
2022-11-23T01:06:07.485Z,66.90
2022-11-23T01:08:35.539Z,72.10
2022-11-23T01:11:05.426Z,67.83
2022-11-23T01:13:38.181Z,70.97
2022-11-23T01:16:06.707Z,69.60
2022-11-23T01:18:34.585Z,68.80
2022-11-23T01:21:02.999Z,70.37
2022-11-23T01:23:32.143Z,65.73
2022-11-23T01:26:06.223Z,68.70
2022-11-23T01:28:34.758Z,68.80
2022-11-23T01:31:10.027Z,67.87
2022-11-23T01:33:38.243Z,67.43
2022-11-23T01:36:13.514Z,65.80
2022-11-23T01:38:41.722Z,67.60
2022-11-23T01:41:13.258Z,68.00
2022-11-23T01:43:41.412Z,67.57
2022-11-23T01:46:12.103Z,65.47
2022-11-23T01:48:44.077Z,64.90
2022-11-23T01:51:15.924Z,65.17
2022-11-23T01:53:46.946Z,61.03
2022-11-23T01:56:18.559Z,63.30
2022-11-23T01:58:49.432Z,65.53
2022-11-23T02:01:18.890Z,61.37
2022-11-23T02:03:49.104Z,62.30
2022-11-23T02:06:19.299Z,63.97
2022-11-23T02:08:48.802Z,62.03
2022-11-23T02:11:17.953Z,60.90
2022-11-23T02:13:48.715Z,60.57
2022-11-23T02:16:18.791Z,61.07
2022-11-23T02:18:49.686Z,60.67
2022-11-23T02:21:20.818Z,61.43
2022-11-23T02:23:56.653Z,59.37
2022-11-23T02:26:28.344Z,62.13
2022-11-23T02:29:03.987Z,59.80
2022-11-23T02:31:32.351Z,59.47
2022-11-23T02:34:00.327Z,61.33
2022-11-23T02:36:40.051Z,61.43
2022-11-23T02:39:11.867Z,61.83
2022-11-23T02:41:43.731Z,61.63
2022-11-23T02:44:22.146Z,58.77
2022-11-23T02:46:51.487Z,61.27
2022-11-23T02:49:19.448Z,59.90
2022-11-23T02:51:47.377Z,59.60
2022-11-23T02:54:15.281Z,59.40
2022-11-23T02:56:44.600Z,60.87
2022-11-23T02:59:12.514Z,59.97
2022-11-23T03:01:41.066Z,60.30
2022-11-23T03:04:09.644Z,60.50
2022-11-23T03:06:37.809Z,60.77
2022-11-23T03:09:05.960Z,58.70
2022-11-23T03:11:34.307Z,58.13
2022-11-23T03:14:05.451Z,59.13
2022-11-23T03:16:42.207Z,60.10
2022-11-23T03:19:10.527Z,61.97
2022-11-23T03:21:38.563Z,60.00
2022-11-23T03:24:08.731Z,59.93
2022-11-23T03:26:37.762Z,60.47
2022-11-23T03:29:16.637Z,59.93
2022-11-23T03:31:44.798Z,58.90
2022-11-23T03:34:15.589Z,59.50
2022-11-23T03:36:45.175Z,58.87
2022-11-23T03:39:14.021Z,58.47
2022-11-23T03:42:02.197Z,56.73
2022-11-23T03:44:35.526Z,57.97
2022-11-23T03:47:03.625Z,57.67
2022-11-23T03:49:31.886Z,55.50
2022-11-23T03:52:00.142Z,56.13
2022-11-23T03:54:29.013Z,56.60
2022-11-23T03:56:57.040Z,56.53
2022-11-23T03:59:25.169Z,55.93
2022-11-23T04:01:55.355Z,55.60
2022-11-23T04:04:27.715Z,56.17
2022-11-23T04:07:12.813Z,56.17
2022-11-23T04:09:47.485Z,59.60
2022-11-23T04:12:25.990Z,60.23
2022-11-23T04:14:54.036Z,59.50
2022-11-23T04:17:23.334Z,61.13
2022-11-23T04:19:51.387Z,61.93
2022-11-23T04:22:19.393Z,61.60
2022-11-23T04:24:48.198Z,62.73
2022-11-23T04:27:16.114Z,63.53
2022-11-23T04:29:44.169Z,63.63
2022-11-23T04:32:12.355Z,66.67
2022-11-23T04:34:42.039Z,62.57
2022-11-23T04:37:13.845Z,63.00
2022-11-23T04:39:43.828Z,63.63
2022-11-23T04:42:20.790Z,63.10
2022-11-23T04:45:01.931Z,62.30
2022-11-23T04:47:31.230Z,61.73
2022-11-23T04:50:04.701Z,65.30
2022-11-23T04:52:32.651Z,65.23
2022-11-23T04:55:00.743Z,67.20
2022-11-23T04:57:32.205Z,78.87
2022-11-23T05:00:00.254Z,73.50
2022-11-23T05:02:29.395Z,68.73
2022-11-23T05:05:19.231Z,64.23
2022-11-23T05:07:47.331Z,59.70
2022-11-23T05:10:17.863Z,58.83
2022-11-23T05:12:47.385Z,63.87
2022-11-23T05:15:15.575Z,64.47
2022-11-23T05:17:45.168Z,73.57
2022-11-23T05:20:23.393Z,63.57
2022-11-23T05:22:51.322Z,68.60
2022-11-23T05:25:22.613Z,57.47
2022-11-23T05:28:00.993Z,60.43
2022-11-23T05:30:32.346Z,57.97
2022-11-23T05:33:02.591Z,57.03
2022-11-23T05:35:32.833Z,54.83
2022-11-23T05:38:00.833Z,54.90
2022-11-23T05:40:29.619Z,53.90
2022-11-23T05:43:00.856Z,53.30
2022-11-23T05:45:30.171Z,54.97
2022-11-23T05:48:00.307Z,49.60
2022-11-23T05:50:41.570Z,50.60
2022-11-23T05:53:25.367Z,52.43
2022-11-23T05:56:01.084Z,65.10
2022-11-23T05:58:30.981Z,58.47
2022-11-23T06:01:00.151Z,51.40
2022-11-23T06:03:31.759Z,74.07
2022-11-23T06:06:01.945Z,68.97
2022-11-23T06:08:36.274Z,49.67
2022-11-23T06:11:05.023Z,55.00
2022-11-23T06:13:33.999Z,57.27
2022-11-23T06:16:03.073Z,56.47
2022-11-23T06:18:41.434Z,87.47
2022-11-23T06:21:12.241Z,47.77
2022-11-23T06:23:40.260Z,50.93
2022-11-23T06:26:08.546Z,56.87
2022-11-23T06:28:37.220Z,90.97
2022-11-23T06:31:06.840Z,82.33
2022-11-23T06:33:36.698Z,48.43
2022-11-23T06:36:05.586Z,47.30
2022-11-23T06:38:40.467Z,46.50
2022-11-23T06:41:13.791Z,51.33
2022-11-23T06:43:41.822Z,51.03
2022-11-23T06:46:12.366Z,54.80
2022-11-23T06:48:44.576Z,51.23
2022-11-23T06:51:14.374Z,72.47
2022-11-23T06:53:44.303Z,71.67
2022-11-23T06:56:14.593Z,71.03
2022-11-23T06:58:43.773Z,50.33
2022-11-23T07:01:17.273Z,99.43
2022-11-23T07:04:00.230Z,58.37
2022-11-23T07:06:33.017Z,85.80
2022-11-23T07:09:07.711Z,73.33
2022-11-23T07:11:49.374Z,72.30
2022-11-23T07:14:18.094Z,53.57
2022-11-23T07:16:48.582Z,54.33
2022-11-23T07:19:16.499Z,57.83
2022-11-23T07:21:46.278Z,63.93
2022-11-23T07:24:15.715Z,47.23
2022-11-23T07:26:43.643Z,57.10
2022-11-23T07:29:11.884Z,49.07
2022-11-23T07:31:40.236Z,47.47
2022-11-23T07:34:09.393Z,48.57
2022-11-23T07:36:37.501Z,54.83
2022-11-23T07:39:06.302Z,66.70
2022-11-23T07:41:35.582Z,48.37
2022-11-23T07:44:20.400Z,57.50
2022-11-23T07:46:48.307Z,48.17
2022-11-23T07:49:16.279Z,47.27
2022-11-23T07:51:44.290Z,62.87
2022-11-23T07:54:12.281Z,58.87
2022-11-23T07:56:41.486Z,50.13
2022-11-23T07:59:09.448Z,51.47
2022-11-23T08:01:37.388Z,49.80
2022-11-23T08:04:05.856Z,49.70
2022-11-23T08:06:33.859Z,48.90
2022-11-23T08:09:01.888Z,54.77
2022-11-23T08:11:29.802Z,51.03
2022-11-23T08:13:59.125Z,49.77
2022-11-23T08:16:27.002Z,53.80
2022-11-23T08:18:54.919Z,50.67
2022-11-23T08:21:23.278Z,51.67
2022-11-23T08:23:51.163Z,51.70
2022-11-23T08:26:19.061Z,51.73
2022-11-23T08:28:47.250Z,50.90
2022-11-23T08:31:16.551Z,50.30
2022-11-23T08:33:44.572Z,49.93
2022-11-23T08:36:12.499Z,52.17
2022-11-23T08:38:40.454Z,52.43
2022-11-23T08:41:08.706Z,52.13
2022-11-23T08:43:36.675Z,51.83
2022-11-23T08:46:10.718Z,49.80
2022-11-23T08:48:40.615Z,50.00
2022-11-23T08:51:09.066Z,49.77
2022-11-23T08:53:37.138Z,49.90
2022-11-23T08:56:07.087Z,50.13
2022-11-23T08:58:34.962Z,49.97
2022-11-23T09:01:04.218Z,51.00
2022-11-23T09:03:32.249Z,51.27
2022-11-23T09:06:02.144Z,49.40
2022-11-23T09:08:30.306Z,50.70
2022-11-23T09:11:01.004Z,49.67
2022-11-23T09:13:29.369Z,50.73
2022-11-23T09:16:00.677Z,49.93
2022-11-23T09:18:30.542Z,49.43
2022-11-23T09:20:59.236Z,50.00
2022-11-23T09:23:28.536Z,50.27
2022-11-23T09:25:59.470Z,49.53
2022-11-23T09:28:28.514Z,51.20
2022-11-23T09:30:57.536Z,51.90
2022-11-23T09:33:26.092Z,51.73
2022-11-23T09:35:58.784Z,52.33
2022-11-23T09:38:44.741Z,51.90
2022-11-23T09:41:31.878Z,52.20
2022-11-23T09:44:07.629Z,52.57
2022-11-23T09:46:46.094Z,51.70
2022-11-23T09:49:16.844Z,52.03
2022-11-23T09:51:46.351Z,54.73
2022-11-23T09:54:31.218Z,53.13
2022-11-23T09:57:01.803Z,52.67
2022-11-23T09:59:42.026Z,50.83
2022-11-23T10:02:21.143Z,51.83
2022-11-23T10:04:49.667Z,52.30
2022-11-23T10:07:31.506Z,50.73
2022-11-23T10:10:11.249Z,50.53
2022-11-23T10:12:47.379Z,51.03
2022-11-23T10:15:21.558Z,51.00
2022-11-23T10:18:17.142Z,50.80
2022-11-23T10:20:56.619Z,51.90
2022-11-23T10:23:44.706Z,50.80
2022-11-23T10:26:18.235Z,51.00
2022-11-23T10:28:47.791Z,50.93
2022-11-23T10:31:18.102Z,48.80
2022-11-23T10:33:57.024Z,49.43
2022-11-23T10:36:24.947Z,50.33
2022-11-23T10:38:58.139Z,51.53
2022-11-23T10:41:27.705Z,50.70
2022-11-23T10:44:05.065Z,51.53
2022-11-23T10:46:40.142Z,50.80
2022-11-23T10:49:17.242Z,48.10
2022-11-23T10:51:56.427Z,49.17
2022-11-23T10:54:36.385Z,49.00
2022-11-23T10:57:30.847Z,46.67
2022-11-23T11:00:00.623Z,48.60
2022-11-23T11:02:29.329Z,48.63
2022-11-23T11:05:14.635Z,49.57
2022-11-23T11:07:42.871Z,50.13
2022-11-23T11:10:38.894Z,49.53
2022-11-23T11:13:23.187Z,51.27
2022-11-23T11:15:56.329Z,50.60
2022-11-23T11:18:28.858Z,51.50
2022-11-23T11:20:59.791Z,53.70
2022-11-23T11:23:29.684Z,51.37
2022-11-23T11:26:08.174Z,49.73
2022-11-23T11:28:40.063Z,51.47
2022-11-23T11:31:26.483Z,52.77
2022-11-23T11:34:04.266Z,53.40
2022-11-23T11:36:40.125Z,53.93
2022-11-23T11:39:19.232Z,53.67
2022-11-23T11:41:52.528Z,53.67
2022-11-23T11:44:23.074Z,52.17
2022-11-23T11:46:57.406Z,53.83
2022-11-23T11:49:29.849Z,53.77
2022-11-23T11:52:06.002Z,54.40
2022-11-23T11:54:41.148Z,53.53
2022-11-23T11:57:19.187Z,54.83
2022-11-23T11:59:50.311Z,56.17
2022-11-23T12:02:25.939Z,57.03
2022-11-23T12:05:15.124Z,57.07
2022-11-23T12:07:49.343Z,57.43
2022-11-23T12:10:20.892Z,55.93
2022-11-23T12:12:50.187Z,54.63
2022-11-23T12:15:47.899Z,54.17
2022-11-23T12:18:35.029Z,55.50
2022-11-23T12:21:06.321Z,53.93
2022-11-23T12:23:44.777Z,55.17
2022-11-23T12:26:20.802Z,54.83
2022-11-23T12:29:38.426Z,56.70
2022-11-23T12:32:17.471Z,57.37
2022-11-23T12:35:07.269Z,55.93
2022-11-23T12:37:52.829Z,57.60
2022-11-23T12:40:46.295Z,58.43
2022-11-23T12:43:19.663Z,56.57
2022-11-23T12:46:09.161Z,56.70
2022-11-23T12:48:54.099Z,56.70
2022-11-23T12:51:34.379Z,55.97
2022-11-23T12:54:16.700Z,59.27
2022-11-23T12:57:01.587Z,59.97
2022-11-23T12:59:42.046Z,58.83
2022-11-23T13:02:21.170Z,60.87
2022-11-23T13:05:34.098Z,61.37
2022-11-23T13:08:20.277Z,59.80
2022-11-23T13:10:59.667Z,59.97
2022-11-23T13:13:49.080Z,59.23
2022-11-23T13:16:54.701Z,60.70
2022-11-23T13:19:37.544Z,60.20
2022-11-23T13:22:11.320Z,60.57
2022-11-23T13:24:41.758Z,56.00
2022-11-23T13:27:32.677Z,58.17
2022-11-23T13:30:08.388Z,55.23
2022-11-23T13:32:47.653Z,56.17
2022-11-23T13:35:53.234Z,56.30
2022-11-23T13:38:42.911Z,57.33
2022-11-23T13:41:53.935Z,56.40
2022-11-23T13:44:24.352Z,55.97
2022-11-23T13:47:08.022Z,54.80
2022-11-23T13:49:41.609Z,54.47
2022-11-23T13:52:32.905Z,52.07
2022-11-23T13:55:09.500Z,52.33
2022-11-23T13:57:42.574Z,52.70
2022-11-23T14:00:48.767Z,52.70
2022-11-23T14:03:50.808Z,52.10
2022-11-23T14:06:26.460Z,51.30
2022-11-23T14:09:10.607Z,51.97
2022-11-23T14:11:52.485Z,50.93
2022-11-23T14:14:24.257Z,52.07
2022-11-23T14:17:17.218Z,50.63
2022-11-23T14:20:06.289Z,49.90
2022-11-23T14:22:52.388Z,49.47
2022-11-23T14:25:36.532Z,49.50
2022-11-23T14:28:15.933Z,49.57
2022-11-23T14:30:56.908Z,49.67
2022-11-23T14:33:34.154Z,49.83
2022-11-23T14:36:13.422Z,49.33
2022-11-23T14:39:11.064Z,49.70
2022-11-23T14:41:42.577Z,48.20
2022-11-23T14:44:15.500Z,48.93
2022-11-23T14:47:01.710Z,48.17
2022-11-23T14:49:29.956Z,47.20
2022-11-23T14:51:58.703Z,46.70
2022-11-23T14:54:29.081Z,46.87
2022-11-23T14:57:01.613Z,47.43
2022-11-23T14:59:32.579Z,45.83
2022-11-23T15:02:03.403Z,45.07
2022-11-23T15:04:36.886Z,45.27
2022-11-23T15:07:18.423Z,44.73
2022-11-23T15:09:52.580Z,45.17
2022-11-23T15:12:25.630Z,45.67
2022-11-23T15:14:57.376Z,45.50
2022-11-23T15:17:25.871Z,45.23
2022-11-23T15:19:58.818Z,44.93
2022-11-23T15:22:28.347Z,45.83
2022-11-23T15:25:06.515Z,45.53
2022-11-23T15:27:41.382Z,43.93
2022-11-23T15:30:17.441Z,44.07
2022-11-23T15:32:45.762Z,44.67
2022-11-23T15:35:16.518Z,46.37
2022-11-23T15:37:46.883Z,46.37
2022-11-23T15:40:16.606Z,46.33
2022-11-23T15:42:48.170Z,45.13
2022-11-23T15:45:39.074Z,45.93
2022-11-23T15:48:13.608Z,46.10
2022-11-23T15:50:51.922Z,47.97
2022-11-23T15:53:22.059Z,47.70
2022-11-23T15:55:51.017Z,48.33
2022-11-23T15:58:21.962Z,47.83
2022-11-23T16:00:53.106Z,47.83
2022-11-23T16:03:34.346Z,46.37
2022-11-23T16:06:26.212Z,48.03
2022-11-23T16:08:54.181Z,49.40
2022-11-23T16:11:31.113Z,48.47
2022-11-23T16:14:14.657Z,47.30
2022-11-23T16:16:46.121Z,48.07
2022-11-23T16:19:28.868Z,48.13
2022-11-23T16:22:02.549Z,48.33
2022-11-23T16:24:33.069Z,48.17
2022-11-23T16:27:01.771Z,46.63
2022-11-23T16:29:37.323Z,50.23
2022-11-23T16:32:07.308Z,50.07
2022-11-23T16:34:35.848Z,50.60
2022-11-23T16:37:04.629Z,49.50
2022-11-23T16:39:32.639Z,48.87
2022-11-23T16:42:00.578Z,50.83
2022-11-23T16:44:35.175Z,50.87
2022-11-23T16:47:22.977Z,53.17
2022-11-23T16:49:51.933Z,52.07
2022-11-23T16:52:20.830Z,50.77
2022-11-23T16:54:48.803Z,50.87
2022-11-23T16:57:21.689Z,53.50
2022-11-23T16:59:51.354Z,51.67
2022-11-23T17:02:19.601Z,52.80
2022-11-23T17:04:47.754Z,51.27
2022-11-23T17:07:16.924Z,50.27
2022-11-23T17:09:44.887Z,50.10
2022-11-23T17:12:17.015Z,48.10
2022-11-23T17:14:48.023Z,49.63
2022-11-23T17:17:21.456Z,49.60
2022-11-23T17:19:50.471Z,48.77
2022-11-23T17:22:19.337Z,49.53
2022-11-23T17:24:48.150Z,48.33
2022-11-23T17:27:17.976Z,49.03
2022-11-23T17:29:47.264Z,47.40
2022-11-23T17:32:15.902Z,46.03
2022-11-23T17:34:45.267Z,46.50
2022-11-23T17:37:19.934Z,46.20
2022-11-23T17:39:48.383Z,46.30
2022-11-23T17:42:16.548Z,45.53
2022-11-23T17:44:44.623Z,48.23
2022-11-23T17:47:25.335Z,48.77
2022-11-23T17:49:54.665Z,49.10
2022-11-23T17:52:22.725Z,49.93
2022-11-23T17:54:50.659Z,49.10
2022-11-23T17:57:21.034Z,51.70
2022-11-23T17:59:48.993Z,49.07
2022-11-23T18:02:19.335Z,49.37
2022-11-23T18:04:47.456Z,47.93
2022-11-23T18:07:18.702Z,49.67
2022-11-23T18:09:46.660Z,50.30
2022-11-23T18:12:14.645Z,51.33
2022-11-23T18:14:42.668Z,52.83
2022-11-23T18:17:10.747Z,53.27
2022-11-23T18:19:38.752Z,53.57
2022-11-23T18:22:06.746Z,52.90
2022-11-23T18:24:36.021Z,54.20
2022-11-23T18:27:04.047Z,55.17
2022-11-23T18:29:32.265Z,55.97
2022-11-23T18:32:00.406Z,54.83
2022-11-23T18:34:28.342Z,56.43
2022-11-23T18:36:56.276Z,58.10
2022-11-23T18:39:24.520Z,54.13
2022-11-23T18:41:53.854Z,57.53
2022-11-23T18:44:21.720Z,56.20
2022-11-23T18:46:49.832Z,58.10
2022-11-23T18:49:17.755Z,61.20
2022-11-23T18:51:45.809Z,57.43
2022-11-23T18:54:13.723Z,56.03
2022-11-23T18:56:41.651Z,58.80
2022-11-23T18:59:23.959Z,59.90
2022-11-23T19:01:59.203Z,58.97
2022-11-23T19:04:27.359Z,59.47
2022-11-23T19:06:55.361Z,55.50
2022-11-23T19:09:23.475Z,56.77
2022-11-23T19:11:51.809Z,57.20
2022-11-23T19:14:21.076Z,55.37
2022-11-23T19:16:48.993Z,54.17
2022-11-23T19:19:18.085Z,55.00
2022-11-23T19:21:47.128Z,53.53
2022-11-23T19:24:15.101Z,53.40
2022-11-23T19:26:43.073Z,54.10
2022-11-23T19:29:11.138Z,54.77
2022-11-23T19:31:40.778Z,57.00
2022-11-23T19:34:10.816Z,57.77
2022-11-23T19:36:40.715Z,57.43
2022-11-23T19:39:10.022Z,57.30
2022-11-23T19:41:38.355Z,57.77
2022-11-23T19:44:06.857Z,56.93
2022-11-23T19:46:34.889Z,54.97
2022-11-23T19:49:04.843Z,56.97
2022-11-23T19:51:32.793Z,55.60
2022-11-23T19:54:01.139Z,54.50
2022-11-23T19:56:30.474Z,55.20
2022-11-23T19:59:01.174Z,54.03
2022-11-23T20:01:32.064Z,54.43
2022-11-23T20:04:08.658Z,53.90
2022-11-23T20:06:42.399Z,52.03
2022-11-23T20:09:12.526Z,51.57
2022-11-23T20:11:44.761Z,52.90
2022-11-23T20:14:15.481Z,52.23
2022-11-23T20:16:43.602Z,52.17
2022-11-23T20:19:11.741Z,52.70
2022-11-23T20:21:41.006Z,54.30
2022-11-23T20:24:11.621Z,54.03
2022-11-23T20:26:41.011Z,54.17
2022-11-23T20:29:10.097Z,55.47
2022-11-23T20:31:38.991Z,56.30
2022-11-23T20:34:10.004Z,53.73
2022-11-23T20:36:41.671Z,52.40
2022-11-23T20:39:12.106Z,51.33
2022-11-23T20:41:40.348Z,53.67
2022-11-23T20:44:12.746Z,53.50
2022-11-23T20:49:30.120Z,54.00
2022-11-23T20:51:59.846Z,52.67
2022-11-23T20:54:27.974Z,50.53
2022-11-23T20:56:58.194Z,50.97
2022-11-23T20:59:26.264Z,50.87
2022-11-23T21:01:54.219Z,51.00
2022-11-23T21:04:22.795Z,51.17
2022-11-23T21:06:50.695Z,49.40
2022-11-23T21:09:20.113Z,47.97
2022-11-23T21:12:05.478Z,48.50
2022-11-23T21:14:34.194Z,48.20
2022-11-23T21:17:02.684Z,48.43
2022-11-23T21:19:32.277Z,47.50
2022-11-23T21:22:03.702Z,46.70
2022-11-23T21:24:35.103Z,48.20
2022-11-23T21:27:03.901Z,47.30
2022-11-23T21:29:32.080Z,46.53
2022-11-23T21:32:01.527Z,47.63
2022-11-23T21:34:30.999Z,46.97
2022-11-23T21:36:59.213Z,49.13
2022-11-23T21:39:29.952Z,49.03
2022-11-23T21:41:59.463Z,48.83
2022-11-23T21:44:27.425Z,51.00
2022-11-23T21:46:55.472Z,49.30
2022-11-23T21:49:23.430Z,49.43
2022-11-23T21:51:51.377Z,49.87
2022-11-23T21:54:19.323Z,49.07
2022-11-23T21:56:48.584Z,48.20
2022-11-23T21:59:17.919Z,49.27
2022-11-23T22:01:45.991Z,50.03
2022-11-23T22:04:15.828Z,51.03
2022-11-23T22:06:45.545Z,49.53
2022-11-23T22:09:14.566Z,49.73
2022-11-23T22:11:44.061Z,50.57
2022-11-23T22:14:13.954Z,49.93
2022-11-23T22:16:45.004Z,49.90
2022-11-23T22:19:14.278Z,51.40
2022-11-23T22:21:43.983Z,50.80
2022-11-23T22:24:13.701Z,51.00
2022-11-23T22:26:41.784Z,49.80
2022-11-23T22:29:10.810Z,49.80
2022-11-23T22:31:39.560Z,50.10
2022-11-23T22:34:12.481Z,50.93
2022-11-23T22:36:40.901Z,49.90
2022-11-23T22:39:10.009Z,55.97
2022-11-23T22:41:38.374Z,51.00
2022-11-23T22:44:08.199Z,49.13
2022-11-23T22:46:36.861Z,49.03
2022-11-23T22:49:05.315Z,48.87
2022-11-23T22:51:34.987Z,48.57
2022-11-23T22:54:03.482Z,49.27
2022-11-23T22:56:32.464Z,48.00
2022-11-23T22:59:00.546Z,48.73
2022-11-23T23:01:30.827Z,48.87
2022-11-23T23:04:01.429Z,48.13
2022-11-23T23:06:31.561Z,49.33
2022-11-23T23:09:02.772Z,48.57
2022-11-23T23:11:32.735Z,47.53
2022-11-23T23:14:01.270Z,48.40
2022-11-23T23:16:30.187Z,48.10
2022-11-23T23:18:59.435Z,49.53
2022-11-23T23:21:28.999Z,47.90
2022-11-23T23:23:59.248Z,47.93
2022-11-23T23:26:29.292Z,47.63
2022-11-23T23:28:58.164Z,46.70
2022-11-23T23:31:26.554Z,46.63
2022-11-23T23:33:54.807Z,47.90
2022-11-23T23:36:24.549Z,48.27
2022-11-23T23:38:53.002Z,48.10
2022-11-23T23:41:21.056Z,48.93
2022-11-23T23:43:50.572Z,49.60
2022-11-23T23:46:18.669Z,47.77
2022-11-23T23:48:46.727Z,49.67
2022-11-23T23:51:16.298Z,48.73
2022-11-23T23:53:45.385Z,50.03
2022-11-23T23:56:15.559Z,48.70
2022-11-23T23:58:43.720Z,47.93
